ACA687 CYYT-CYYZ
Flight info
| Callsign | ACA687 |
|---|---|
| Flight time | N/A |
| Altitude | 36000 |
| Route | TEXED DCT TAGRA DCT MIILS DCT TUKIR RAGID6 |
| Aircraft | A321/M-SDE3FGHIRWY/LB1 |
Departure
| Time | 2026-05-07 12:54 |
|---|---|
| Airport | St. John's International Airport (CYYT) |
Arrival
| Time | N/A |
|---|---|
| Airport | Toronto Pearson International Airport (CYYZ) |
| Time | Latitude | Longitude | Altitude | Speed | Heading |
|---|---|---|---|---|---|
| 2026-05-07 12:45 | 47.61451 | -52.74207 | 449 ft | 0 kts | 191° |
| 2026-05-07 12:46 | 47.61450 | -52.74206 | 449 ft | 0 kts | 186° |
| 2026-05-07 12:47 | 47.61448 | -52.74204 | 449 ft | 0 kts | 161° |
| 2026-05-07 12:47 | 47.61431 | -52.74172 | 449 ft | 9 kts | 123° |
| 2026-05-07 12:47 | 47.61400 | -52.74082 | 449 ft | 9 kts | 117° |
| 2026-05-07 12:47 | 47.61369 | -52.74001 | 449 ft | 9 kts | 125° |
| 2026-05-07 12:48 | 47.61321 | -52.73962 | 449 ft | 8 kts | 172° |
| 2026-05-07 12:48 | 47.61275 | -52.73931 | 449 ft | 6 kts | 126° |
| 2026-05-07 12:48 | 47.61263 | -52.73857 | 438 ft | 9 kts | 80° |
| 2026-05-07 12:48 | 47.61311 | -52.73824 | 437 ft | 6 kts | 360° |
| 2026-05-07 12:49 | 47.61379 | -52.73833 | 432 ft | 14 kts | 355° |
| 2026-05-07 12:49 | 47.61496 | -52.73847 | 421 ft | 18 kts | 356° |
| 2026-05-07 12:49 | 47.61610 | -52.73858 | 427 ft | 15 kts | 356° |
| 2026-05-07 12:49 | 47.61727 | -52.73869 | 433 ft | 19 kts | 356° |
| 2026-05-07 12:50 | 47.61853 | -52.73881 | 436 ft | 17 kts | 356° |
| 2026-05-07 12:50 | 47.61965 | -52.73892 | 440 ft | 15 kts | 356° |
| 2026-05-07 12:50 | 47.62065 | -52.73901 | 431 ft | 14 kts | 356° |
| 2026-05-07 12:50 | 47.62153 | -52.73910 | 435 ft | 12 kts | 356° |
| 2026-05-07 12:51 | 47.62232 | -52.73918 | 437 ft | 11 kts | 356° |
| 2026-05-07 12:51 | 47.62324 | -52.73927 | 430 ft | 17 kts | 356° |
| 2026-05-07 12:51 | 47.62437 | -52.73938 | 426 ft | 16 kts | 356° |
| 2026-05-07 12:51 | 47.62510 | -52.73933 | 432 ft | 10 kts | 30° |
| 2026-05-07 12:52 | 47.62552 | -52.73842 | 428 ft | 12 kts | 63° |
| 2026-05-07 12:52 | 47.62556 | -52.73756 | 426 ft | 6 kts | 137° |
| 2026-05-07 12:52 | 47.62529 | -52.73788 | 424 ft | 7 kts | 243° |
| 2026-05-07 12:52 | 47.62524 | -52.73835 | 430 ft | 2 kts | 264° |
| 2026-05-07 12:53 | 47.62522 | -52.73855 | 422 ft | 8 kts | 264° |
| 2026-05-07 12:53 | 47.62499 | -52.74305 | 448 ft | 78 kts | 266° |
| 2026-05-07 12:53 | 47.62445 | -52.75405 | 449 ft | 134 kts | 265° |
| 2026-05-07 12:53 | 47.62386 | -52.76933 | 751 ft | 151 kts | 262° |
| 2026-05-07 12:54 | 47.62364 | -52.78448 | 1512 ft | 147 kts | 259° |
| 2026-05-07 12:54 | 47.62312 | -52.79989 | 2038 ft | 157 kts | 257° |
| 2026-05-07 12:54 | 47.62203 | -52.81755 | 2199 ft | 185 kts | 256° |
| 2026-05-07 12:54 | 47.62091 | -52.83777 | 2385 ft | 208 kts | 257° |
| 2026-05-07 12:55 | 47.61920 | -52.86033 | 2590 ft | 233 kts | 256° |
| 2026-05-07 12:55 | 47.61698 | -52.88507 | 3145 ft | 248 kts | 256° |
| 2026-05-07 12:55 | 47.61470 | -52.91069 | 3963 ft | 253 kts | 256° |
| 2026-05-07 12:55 | 47.61244 | -52.93662 | 4842 ft | 254 kts | 257° |
| 2026-05-07 12:56 | 47.61018 | -52.96271 | 5702 ft | 256 kts | 257° |
| 2026-05-07 12:56 | 47.60791 | -52.98905 | 6551 ft | 259 kts | 257° |
| 2026-05-07 12:56 | 47.60564 | -53.01561 | 7319 ft | 261 kts | 257° |
| 2026-05-07 12:56 | 47.60335 | -53.04239 | 8102 ft | 263 kts | 257° |
| 2026-05-07 12:57 | 47.60102 | -53.06942 | 8876 ft | 265 kts | 257° |
| 2026-05-07 12:57 | 47.59871 | -53.09627 | 9627 ft | 267 kts | 257° |
| 2026-05-07 12:57 | 47.59632 | -53.12377 | 10318 ft | 273 kts | 257° |
| 2026-05-07 12:57 | 47.59370 | -53.15280 | 10502 ft | 296 kts | 257° |
| 2026-05-07 12:58 | 47.59086 | -53.18407 | 10726 ft | 314 kts | 257° |
| 2026-05-07 12:58 | 47.58797 | -53.21659 | 11290 ft | 321 kts | 258° |
| 2026-05-07 12:58 | 47.58508 | -53.24954 | 11969 ft | 324 kts | 257° |
| 2026-05-07 12:58 | 47.58218 | -53.28279 | 12645 ft | 327 kts | 258° |
| 2026-05-07 12:59 | 47.57923 | -53.31644 | 13309 ft | 331 kts | 257° |
| 2026-05-07 12:59 | 47.57622 | -53.35036 | 13967 ft | 334 kts | 258° |
| 2026-05-07 12:59 | 47.57314 | -53.38464 | 14576 ft | 337 kts | 257° |
| 2026-05-07 12:59 | 47.57003 | -53.41922 | 15156 ft | 341 kts | 257° |
| 2026-05-07 13:00 | 47.56685 | -53.45422 | 15758 ft | 344 kts | 257° |
| 2026-05-07 13:00 | 47.56364 | -53.48945 | 16349 ft | 347 kts | 257° |
| 2026-05-07 13:00 | 47.56039 | -53.52497 | 16934 ft | 350 kts | 258° |
| 2026-05-07 13:00 | 47.55711 | -53.56078 | 17529 ft | 353 kts | 258° |
| 2026-05-07 13:01 | 47.55377 | -53.59696 | 18099 ft | 356 kts | 258° |
| 2026-05-07 13:01 | 47.55045 | -53.63290 | 18640 ft | 359 kts | 258° |
| 2026-05-07 13:01 | 47.54705 | -53.66959 | 19121 ft | 361 kts | 258° |
| 2026-05-07 13:01 | 47.54363 | -53.70655 | 19606 ft | 364 kts | 258° |
| 2026-05-07 13:02 | 47.54016 | -53.74380 | 20089 ft | 366 kts | 258° |
| 2026-05-07 13:02 | 47.53666 | -53.78134 | 20553 ft | 369 kts | 258° |
| 2026-05-07 13:02 | 47.53311 | -53.81913 | 21021 ft | 372 kts | 258° |
| 2026-05-07 13:02 | 47.52954 | -53.85716 | 21481 ft | 375 kts | 257° |
| 2026-05-07 13:03 | 47.52591 | -53.89546 | 21942 ft | 377 kts | 257° |
| 2026-05-07 13:03 | 47.52222 | -53.93403 | 22400 ft | 380 kts | 257° |
| 2026-05-07 13:03 | 47.51849 | -53.97291 | 22847 ft | 383 kts | 257° |
| 2026-05-07 13:03 | 47.51474 | -54.01211 | 23286 ft | 386 kts | 257° |
| 2026-05-07 13:04 | 47.51098 | -54.05153 | 23722 ft | 389 kts | 257° |
| 2026-05-07 13:04 | 47.50719 | -54.09125 | 24088 ft | 391 kts | 257° |
| 2026-05-07 13:04 | 47.50337 | -54.13122 | 24462 ft | 393 kts | 257° |
| 2026-05-07 13:04 | 47.49959 | -54.17081 | 24840 ft | 395 kts | 257° |
| 2026-05-07 13:05 | 47.49572 | -54.21106 | 25214 ft | 396 kts | 257° |
| 2026-05-07 13:05 | 47.49174 | -54.25156 | 25598 ft | 398 kts | 257° |
| 2026-05-07 13:05 | 47.48770 | -54.29214 | 25959 ft | 400 kts | 257° |
| 2026-05-07 13:05 | 47.48365 | -54.33285 | 26320 ft | 401 kts | 257° |
| 2026-05-07 13:06 | 47.47959 | -54.37375 | 26681 ft | 403 kts | 257° |
| 2026-05-07 13:06 | 47.47550 | -54.41491 | 27035 ft | 405 kts | 257° |
| 2026-05-07 13:06 | 47.47142 | -54.45616 | 27446 ft | 405 kts | 257° |
| 2026-05-07 13:06 | 47.46732 | -54.49731 | 27883 ft | 405 kts | 258° |
| 2026-05-07 13:07 | 47.46317 | -54.53857 | 28215 ft | 407 kts | 258° |
| 2026-05-07 13:07 | 47.45904 | -54.57944 | 28552 ft | 408 kts | 258° |
| 2026-05-07 13:07 | 47.45476 | -54.62153 | 28884 ft | 410 kts | 258° |
| 2026-05-07 13:07 | 47.45055 | -54.66275 | 29212 ft | 411 kts | 258° |
| 2026-05-07 13:08 | 47.44626 | -54.70465 | 29526 ft | 413 kts | 258° |
| 2026-05-07 13:08 | 47.44196 | -54.74670 | 29826 ft | 415 kts | 258° |
| 2026-05-07 13:08 | 47.43767 | -54.78885 | 30132 ft | 416 kts | 258° |
| 2026-05-07 13:08 | 47.43334 | -54.83117 | 30404 ft | 418 kts | 258° |
| 2026-05-07 13:09 | 47.42898 | -54.87368 | 30652 ft | 419 kts | 258° |
| 2026-05-07 13:09 | 47.42457 | -54.91627 | 30898 ft | 421 kts | 258° |
| 2026-05-07 13:09 | 47.42012 | -54.95916 | 31164 ft | 422 kts | 258° |
| 2026-05-07 13:09 | 47.41565 | -55.00198 | 31514 ft | 421 kts | 257° |
| 2026-05-07 13:10 | 47.41117 | -55.04466 | 31886 ft | 421 kts | 257° |
| 2026-05-07 13:10 | 47.40666 | -55.08745 | 32188 ft | 421 kts | 256° |
| 2026-05-07 13:10 | 47.40213 | -55.13015 | 32532 ft | 421 kts | 256° |
| 2026-05-07 13:10 | 47.39760 | -55.17283 | 32875 ft | 420 kts | 256° |
| 2026-05-07 13:11 | 47.39308 | -55.21536 | 33252 ft | 418 kts | 256° |
| 2026-05-07 13:11 | 47.38857 | -55.25772 | 33635 ft | 417 kts | 256° |
| 2026-05-07 13:11 | 47.38407 | -55.29994 | 34017 ft | 416 kts | 256° |
| 2026-05-07 13:11 | 47.37956 | -55.34203 | 34352 ft | 414 kts | 256° |
| 2026-05-07 13:12 | 47.37506 | -55.38335 | 34648 ft | 413 kts | 256° |
| 2026-05-07 13:12 | 47.37047 | -55.42526 | 34930 ft | 412 kts | 256° |
| 2026-05-07 13:12 | 47.36593 | -55.46697 | 35229 ft | 411 kts | 256° |
| 2026-05-07 13:12 | 47.36141 | -55.50857 | 35526 ft | 410 kts | 256° |
| 2026-05-07 13:13 | 47.35689 | -55.55008 | 35816 ft | 410 kts | 256° |
| 2026-05-07 13:13 | 47.35236 | -55.59151 | 36051 ft | 409 kts | 256° |
| 2026-05-07 13:13 | 47.34329 | -55.67377 | 36094 ft | 404 kts | 256° |
| 2026-05-07 13:14 | 47.33418 | -55.75528 | 36104 ft | 403 kts | 255° |
| 2026-05-07 13:14 | 47.32505 | -55.83671 | 36113 ft | 402 kts | 256° |
| 2026-05-07 13:15 | 47.31588 | -55.91809 | 36098 ft | 402 kts | 255° |
| 2026-05-07 13:15 | 47.30657 | -55.99934 | 36095 ft | 402 kts | 255° |
| 2026-05-07 13:16 | 47.29733 | -56.08058 | 36103 ft | 402 kts | 255° |
| 2026-05-07 13:16 | 47.28804 | -56.16182 | 36103 ft | 402 kts | 255° |
| 2026-05-07 13:17 | 47.28026 | -56.22937 | 36138 ft | 402 kts | 255° |
| 2026-05-07 13:17 | 47.27080 | -56.31065 | 36134 ft | 402 kts | 255° |
| 2026-05-07 13:18 | 47.26127 | -56.39185 | 36128 ft | 402 kts | 255° |
| 2026-05-07 13:18 | 47.25173 | -56.47296 | 36109 ft | 402 kts | 255° |
| 2026-05-07 13:19 | 47.24211 | -56.55407 | 36123 ft | 402 kts | 255° |
| 2026-05-07 13:19 | 47.23247 | -56.63453 | 36117 ft | 402 kts | 255° |
| 2026-05-07 13:20 | 47.22273 | -56.71547 | 36118 ft | 402 kts | 255° |
| 2026-05-07 13:20 | 47.21297 | -56.79642 | 36117 ft | 402 kts | 255° |
| 2026-05-07 13:21 | 47.20317 | -56.87717 | 36122 ft | 400 kts | 255° |
| 2026-05-07 13:21 | 47.19334 | -56.95767 | 36121 ft | 400 kts | 255° |
| 2026-05-07 13:22 | 47.18339 | -57.03808 | 36116 ft | 400 kts | 255° |
| 2026-05-07 13:22 | 47.17878 | -57.11989 | 36108 ft | 407 kts | 265° |
| 2026-05-07 13:23 | 47.17989 | -57.20303 | 36101 ft | 407 kts | 265° |
| 2026-05-07 13:23 | 47.18095 | -57.28621 | 36093 ft | 407 kts | 265° |
| 2026-05-07 13:24 | 47.18190 | -57.36937 | 36113 ft | 406 kts | 265° |
| 2026-05-07 13:24 | 47.18268 | -57.45139 | 36085 ft | 403 kts | 265° |
| 2026-05-07 13:25 | 47.18340 | -57.53380 | 36077 ft | 403 kts | 265° |
| 2026-05-07 13:25 | 47.18406 | -57.61619 | 36072 ft | 403 kts | 265° |
| 2026-05-07 13:26 | 47.18477 | -57.69863 | 36060 ft | 403 kts | 265° |
| 2026-05-07 13:26 | 47.18535 | -57.78099 | 36063 ft | 403 kts | 265° |
| 2026-05-07 13:27 | 47.18579 | -57.86338 | 36090 ft | 403 kts | 265° |
| 2026-05-07 13:27 | 47.18631 | -57.94564 | 36075 ft | 401 kts | 265° |
| 2026-05-07 13:28 | 47.18672 | -58.02754 | 36057 ft | 400 kts | 265° |
| 2026-05-07 13:28 | 47.18709 | -58.10934 | 36046 ft | 400 kts | 264° |
| 2026-05-07 13:29 | 47.18739 | -58.19089 | 36046 ft | 398 kts | 265° |
| 2026-05-07 13:29 | 47.18761 | -58.27210 | 36030 ft | 397 kts | 265° |
| 2026-05-07 13:30 | 47.18777 | -58.35305 | 36021 ft | 394 kts | 264° |
| 2026-05-07 13:30 | 47.18794 | -58.43299 | 36004 ft | 393 kts | 264° |
| 2026-05-07 13:31 | 47.18798 | -58.51346 | 35983 ft | 394 kts | 264° |
| 2026-05-07 13:31 | 47.18799 | -58.59390 | 35982 ft | 394 kts | 264° |
| 2026-05-07 13:32 | 47.18792 | -58.67452 | 35975 ft | 394 kts | 264° |
| 2026-05-07 13:32 | 47.18784 | -58.75512 | 35974 ft | 394 kts | 264° |
| 2026-05-07 13:33 | 47.18767 | -58.83513 | 35973 ft | 393 kts | 263° |
| 2026-05-07 13:33 | 47.18744 | -58.91528 | 35968 ft | 392 kts | 264° |
| 2026-05-07 13:34 | 47.18709 | -59.03532 | 35953 ft | 391 kts | 264° |